KDYT

Sky Harbor Airport

Duluth, Minnesota, USA
METAR KDYT 192255Z AUTO 12005KT 10SM CLR 23/21 A2992 RMK AO2
Observed Flight Rules
Aug-19 @ 22:55 UTC (12 minutes ago) Visual Flight Rules
Wind Visibility Clouds
120° at 5 knots 10 miles
  • Clear skies
Temperatures Readings
Current 23°C / 73°F
Dewpoint 21°C / 70°F
Humidity 89%
Altimeter 29.92" Hg
Pressure 1013 hPa
Elevation 186
METAR KDYT 192255Z AUTO 12005KT 10SM CLR 23/21 A2992 RMK AO2
Observed Flight Rules
Aug-19 @ 22:55 UTC
(12 minutes ago)
VFR
Wind Visibility
120° at 5 knots 10 miles
Clouds
  • Clear skies
Temperature Dewpoint
23°C / 73°F 21°C / 70°F
Humidity Altimeter Pressure
89% 29.92" Hg 1013 hPa